Terminal Aerodrome Forecast
Issued by NWS

Current Version | Previous Version | Graphics & Text | Print | Product List | Glossary On
Versions: 1 2 3 4 5 6 7 8 9 10 11 12 13 14 15 16 17 18 19 20 21
000
FTUS41 KPBZ 181300 AAA
TAFHLG
TAF AMD
KHLG 181309Z 1813/1912 06005KT 1/4SM FG VV002
      TEMPO 1813/1814 3SM BR BKN008
     FM181400 07005KT P6SM BKN080
     FM181800 03005KT P6SM BKN100
     FM190600 01002KT 4SM BR SCT100=

USA.gov is the U.S. government's official web portal to all federal, state and local government web resources and services.